createdAt,value
2023-04-27T00:00:28.946Z,1002.24
2023-04-27T00:05:28.915Z,1002.20
2023-04-27T00:10:28.819Z,1002.20
2023-04-27T00:15:28.736Z,1002.17
2023-04-27T00:20:28.682Z,1002.12
2023-04-27T00:25:28.606Z,1002.16
2023-04-27T00:30:28.561Z,1002.17
2023-04-27T00:35:28.474Z,1002.15
2023-04-27T00:40:28.452Z,1002.12
2023-04-27T00:45:28.354Z,1002.12
2023-04-27T00:50:28.283Z,1002.14
2023-04-27T00:55:28.233Z,1002.18
2023-04-27T01:00:28.158Z,1002.15
2023-04-27T01:05:28.086Z,1002.20
2023-04-27T01:10:28.035Z,1002.23
2023-04-27T01:15:27.954Z,1002.28
2023-04-27T01:20:27.905Z,1002.24
2023-04-27T01:25:27.830Z,1002.19
2023-04-27T01:30:27.769Z,1002.16
2023-04-27T01:35:28.472Z,1002.14
2023-04-27T01:40:27.662Z,1002.12
2023-04-27T01:45:27.575Z,1002.18
2023-04-27T01:50:27.524Z,1002.22
2023-04-27T01:55:27.454Z,1002.33
2023-04-27T02:00:27.399Z,1002.30
2023-04-27T02:05:27.332Z,1002.31
2023-04-27T02:10:27.275Z,1002.34
2023-04-27T02:15:27.202Z,1002.34
2023-04-27T02:20:27.147Z,1002.37
2023-04-27T02:25:27.081Z,1002.40
2023-04-27T02:30:27.018Z,1002.53
2023-04-27T02:35:26.960Z,1002.58
2023-04-27T02:40:26.901Z,1002.51
2023-04-27T02:45:26.836Z,1002.49
2023-04-27T02:50:26.762Z,1002.55
2023-04-27T02:55:26.693Z,1002.55
2023-04-27T03:00:26.635Z,1002.69
2023-04-27T03:05:26.563Z,1002.68
2023-04-27T03:10:26.512Z,1002.71
2023-04-27T03:15:26.436Z,1002.74
2023-04-27T03:20:26.376Z,1002.78
2023-04-27T03:25:26.309Z,1002.75
2023-04-27T03:30:26.255Z,1002.84
2023-04-27T03:35:26.177Z,1002.95
2023-04-27T03:40:26.133Z,1002.96
2023-04-27T03:45:26.055Z,1003.05
2023-04-27T03:50:25.997Z,1003.02
2023-04-27T03:55:25.925Z,1003.07
2023-04-27T04:00:25.864Z,1003.03
2023-04-27T04:05:25.806Z,1003.13
2023-04-27T04:10:25.738Z,1003.08
2023-04-27T04:15:25.667Z,1003.16
2023-04-27T04:20:25.616Z,1003.21
2023-04-27T04:25:25.545Z,1003.17
2023-04-27T04:30:25.499Z,1003.19
2023-04-27T04:35:25.438Z,1003.23
2023-04-27T04:40:25.364Z,1003.29
2023-04-27T04:45:25.292Z,1003.28
2023-04-27T04:50:25.232Z,1003.29
2023-04-27T04:55:25.172Z,1003.35
2023-04-27T05:00:25.119Z,1003.27
2023-04-27T05:05:25.047Z,1003.27
2023-04-27T05:10:24.980Z,1003.27
2023-04-27T05:15:24.919Z,1003.32
2023-04-27T05:20:24.856Z,1003.32
2023-04-27T05:25:24.790Z,1003.34
2023-04-27T05:30:24.729Z,1003.21
2023-04-27T05:35:24.667Z,1003.16
2023-04-27T05:40:24.605Z,1003.20
2023-04-27T05:45:24.521Z,1003.31
2023-04-27T05:50:24.463Z,1003.35
2023-04-27T05:55:24.394Z,1003.34
2023-04-27T06:00:24.330Z,1003.33
2023-04-27T06:05:24.279Z,1003.38
2023-04-27T06:10:24.211Z,1003.38
2023-04-27T06:15:24.130Z,1003.43
2023-04-27T06:20:24.076Z,1003.46
2023-04-27T06:25:27.044Z,1003.48
2023-04-27T06:30:23.939Z,1003.53
2023-04-27T06:35:23.875Z,1003.60
2023-04-27T06:40:23.810Z,1003.59
2023-04-27T06:45:23.729Z,1003.58
2023-04-27T06:50:23.679Z,1003.62
2023-04-27T06:55:23.753Z,1003.61
2023-04-27T07:00:23.742Z,1003.59
2023-04-27T07:05:23.489Z,1003.73
2023-04-27T07:10:23.414Z,1003.65
2023-04-27T07:15:23.345Z,1003.70
2023-04-27T07:20:23.284Z,1003.80
2023-04-27T07:25:23.212Z,1003.72
2023-04-27T07:30:23.151Z,1003.71
2023-04-27T07:35:23.076Z,1003.74
2023-04-27T07:40:23.016Z,1003.78
2023-04-27T07:45:23.024Z,1003.72
2023-04-27T07:50:22.884Z,1003.83
2023-04-27T07:55:22.810Z,1003.94
2023-04-27T08:00:22.757Z,1003.86
2023-04-27T08:05:23.148Z,1003.93
2023-04-27T08:10:22.631Z,1003.86
2023-04-27T08:15:22.549Z,1003.83
2023-04-27T08:20:22.495Z,1003.82
2023-04-27T08:25:22.417Z,1003.74
2023-04-27T08:30:22.362Z,1003.72
2023-04-27T08:35:22.283Z,1003.71
2023-04-27T08:40:22.225Z,1003.77
2023-04-27T08:45:22.161Z,1003.74
2023-04-27T08:50:22.108Z,1003.72
2023-04-27T08:55:22.025Z,1003.65
2023-04-27T09:00:22.046Z,1003.57
2023-04-27T09:05:21.938Z,1003.59
2023-04-27T09:10:21.876Z,1003.53
2023-04-27T09:15:21.767Z,1003.58
2023-04-27T09:20:21.706Z,1003.65
2023-04-27T09:25:21.638Z,1003.62
2023-04-27T09:30:21.581Z,1003.48
2023-04-27T09:35:21.510Z,1003.47
2023-04-27T09:40:21.460Z,1003.48
2023-04-27T09:45:21.385Z,1003.43
2023-04-27T09:50:21.315Z,1003.45
2023-04-27T09:55:21.242Z,1003.42
2023-04-27T10:00:21.200Z,1003.40
2023-04-27T10:05:21.250Z,1003.41
2023-04-27T10:10:21.051Z,1003.37
2023-04-27T10:15:20.997Z,1003.41
2023-04-27T10:20:20.918Z,1003.38
2023-04-27T10:25:20.846Z,1003.39
2023-04-27T10:30:20.801Z,1003.36
2023-04-27T10:35:20.725Z,1003.32
2023-04-27T10:40:20.676Z,1003.38
2023-04-27T10:45:20.588Z,1003.36
2023-04-27T10:50:20.532Z,1003.42
2023-04-27T10:55:20.460Z,1003.38
2023-04-27T11:00:20.400Z,1003.34
2023-04-27T11:05:20.428Z,1003.37
2023-04-27T11:10:20.269Z,1003.35
2023-04-27T11:15:20.196Z,1003.37
2023-04-27T11:20:20.136Z,1003.38
2023-04-27T11:25:20.063Z,1003.25
2023-04-27T11:30:20.006Z,1003.26
2023-04-27T11:35:19.934Z,1003.28
2023-04-27T11:40:20.722Z,1003.29
2023-04-27T11:45:19.805Z,1003.31
2023-04-27T11:50:19.756Z,1003.24
2023-04-27T11:55:19.685Z,1003.22
2023-04-27T12:00:19.613Z,1003.25
2023-04-27T12:05:19.750Z,1003.21
2023-04-27T12:10:19.498Z,1003.20
2023-04-27T12:15:19.424Z,1003.14
2023-04-27T12:20:19.354Z,1003.20
2023-04-27T12:25:19.280Z,1003.13
2023-04-27T12:30:19.219Z,1003.10
2023-04-27T12:35:19.156Z,1003.08
2023-04-27T12:40:19.098Z,1003.14
2023-04-27T12:45:19.018Z,1003.18
2023-04-27T12:50:18.963Z,1003.13
2023-04-27T12:55:31.561Z,1003.09
2023-04-27T13:00:19.852Z,1003.09
2023-04-27T13:05:18.771Z,1003.02
2023-04-27T13:10:18.708Z,1002.98
2023-04-27T13:15:18.618Z,1002.92
2023-04-27T13:20:18.559Z,1002.87
2023-04-27T13:25:18.508Z,1002.88
2023-04-27T13:30:18.466Z,1002.82
2023-04-27T13:35:18.350Z,1002.78
2023-04-27T13:40:18.286Z,1002.77
2023-04-27T13:45:18.217Z,1002.80
2023-04-27T13:50:18.153Z,1002.71
2023-04-27T13:55:18.095Z,1002.64
2023-04-27T14:00:18.018Z,1002.57
2023-04-27T14:05:17.944Z,1002.66
2023-04-27T14:10:17.885Z,1002.58
2023-04-27T14:15:17.822Z,1002.57
2023-04-27T14:20:17.750Z,1002.56
2023-04-27T14:25:17.686Z,1002.55
2023-04-27T14:30:17.624Z,1002.63
2023-04-27T14:35:17.550Z,1002.62
2023-04-27T14:40:17.492Z,1002.58
2023-04-27T14:45:17.418Z,1002.57
2023-04-27T14:50:17.365Z,1002.56
2023-04-27T14:55:17.292Z,1002.53
2023-04-27T15:00:17.240Z,1002.58
2023-04-27T15:05:17.172Z,1002.63
2023-04-27T15:10:17.118Z,1002.55
2023-04-27T15:15:17.051Z,1002.52
2023-04-27T15:20:16.972Z,1002.52
2023-04-27T15:25:16.917Z,1002.52
2023-04-27T15:30:16.844Z,1002.45
2023-04-27T15:35:16.785Z,1002.43
2023-04-27T15:40:16.716Z,1002.40
2023-04-27T15:45:16.653Z,1002.32
2023-04-27T15:50:17.958Z,1002.30
2023-04-27T15:55:16.524Z,1002.27
2023-04-27T16:00:16.514Z,1002.17
2023-04-27T16:05:16.392Z,1002.14
2023-04-27T16:10:16.330Z,1002.12
2023-04-27T16:15:16.265Z,1002.14
2023-04-27T16:20:16.208Z,1002.04
2023-04-27T16:25:16.157Z,1002.02
2023-04-27T16:30:16.057Z,1001.95
2023-04-27T16:35:15.999Z,1001.90
2023-04-27T16:40:15.927Z,1001.89
2023-04-27T16:45:15.865Z,1001.92
2023-04-27T16:50:15.794Z,1001.92
2023-04-27T16:55:15.734Z,1002.03
2023-04-27T17:00:15.658Z,1002.04
2023-04-27T17:05:15.700Z,1002.07
2023-04-27T17:10:15.533Z,1002.09
2023-04-27T17:15:15.470Z,1002.16
2023-04-27T17:20:15.402Z,1002.17
2023-04-27T17:25:15.354Z,1002.24
2023-04-27T17:30:15.266Z,1002.16
2023-04-27T17:35:15.215Z,1002.15
2023-04-27T17:40:15.135Z,1002.16
2023-04-27T17:45:15.073Z,1002.15
2023-04-27T17:50:14.999Z,1002.14
2023-04-27T17:55:14.952Z,1002.12
2023-04-27T18:00:14.875Z,1002.12
2023-04-27T18:05:14.818Z,1002.13
2023-04-27T18:10:14.741Z,1002.21
2023-04-27T18:15:14.683Z,1002.24
2023-04-27T18:20:14.616Z,1002.25
2023-04-27T18:25:14.554Z,1002.33
2023-04-27T18:30:14.482Z,1002.35
2023-04-27T18:35:14.432Z,1002.42
2023-04-27T18:40:14.347Z,1002.46
2023-04-27T18:45:14.300Z,1002.51
2023-04-27T18:50:14.232Z,1002.48
2023-04-27T18:55:14.154Z,1002.46
2023-04-27T19:00:14.116Z,1002.43
2023-04-27T19:05:14.276Z,1002.38
2023-04-27T19:10:13.970Z,1002.40
2023-04-27T19:15:13.986Z,1002.39
2023-04-27T19:20:13.822Z,1002.33
2023-04-27T19:25:13.773Z,1002.39
2023-04-27T19:30:13.693Z,1002.51
2023-04-27T19:35:13.636Z,1002.62
2023-04-27T19:40:13.687Z,1002.54
2023-04-27T19:45:13.499Z,1002.50
2023-04-27T19:50:13.446Z,1002.47
2023-04-27T19:55:13.366Z,1002.51
2023-04-27T20:00:13.290Z,1002.46
2023-04-27T20:05:13.867Z,1002.48
2023-04-27T20:10:13.179Z,1002.49
2023-04-27T20:15:13.109Z,1002.44
2023-04-27T20:20:13.033Z,1002.42
2023-04-27T20:25:12.973Z,1002.35
2023-04-27T20:30:12.894Z,1002.40
2023-04-27T20:35:12.839Z,1002.37
2023-04-27T20:40:14.222Z,1002.36
2023-04-27T20:45:12.765Z,1002.37
2023-04-27T20:50:12.637Z,1002.28
2023-04-27T20:55:12.583Z,1002.23
2023-04-27T21:00:12.512Z,1002.23
2023-04-27T21:05:12.467Z,1002.23
2023-04-27T21:10:12.383Z,1002.19
2023-04-27T21:15:12.319Z,1002.12
2023-04-27T21:20:12.253Z,1002.19
2023-04-27T21:25:12.190Z,1002.19
2023-04-27T21:30:12.115Z,1002.24
2023-04-27T21:35:12.061Z,1002.23
2023-04-27T21:40:11.988Z,1002.16
2023-04-27T21:45:11.929Z,1002.18
2023-04-27T21:50:11.856Z,1002.19
2023-04-27T21:55:11.795Z,1002.20
2023-04-27T22:00:11.728Z,1002.25
2023-04-27T22:05:11.667Z,1002.20
2023-04-27T22:10:11.590Z,1002.14
2023-04-27T22:15:11.545Z,1002.06
2023-04-27T22:20:11.472Z,1002.05
2023-04-27T22:25:11.409Z,1002.01
2023-04-27T22:30:11.338Z,1001.96
2023-04-27T22:35:18.608Z,1001.99
2023-04-27T22:40:12.228Z,1001.91
2023-04-27T22:45:11.144Z,1001.80
2023-04-27T22:50:11.070Z,1001.73
2023-04-27T22:55:11.013Z,1001.66
2023-04-27T23:00:10.963Z,1001.67
2023-04-27T23:05:11.106Z,1001.63
2023-04-27T23:10:10.838Z,1001.64
2023-04-27T23:15:10.749Z,1001.57
2023-04-27T23:20:26.671Z,1001.54
2023-04-27T23:25:11.650Z,1001.45
2023-04-27T23:30:10.547Z,1001.42
2023-04-27T23:35:10.495Z,1001.34
2023-04-27T23:40:10.416Z,1001.28
2023-04-27T23:45:10.373Z,1001.19
2023-04-27T23:50:10.298Z,1001.18
2023-04-27T23:55:10.258Z,1001.12
